sensor_id;sensor_type;location;lat;lon;timestamp;P1;durP1;ratioP1;P2;durP2;ratioP2
17842;SDS011;69286;48.222;16.332;2023-06-14T00:00:47;8.70;;;3.77;;
17842;SDS011;69286;48.222;16.332;2023-06-14T00:03:14;9.90;;;4.00;;
17842;SDS011;69286;48.222;16.332;2023-06-14T00:05:42;6.63;;;4.50;;
17842;SDS011;69286;48.222;16.332;2023-06-14T00:08:11;7.87;;;3.40;;
17842;SDS011;69286;48.222;16.332;2023-06-14T00:10:40;6.73;;;3.97;;
17842;SDS011;69286;48.222;16.332;2023-06-14T00:13:08;7.67;;;3.40;;
17842;SDS011;69286;48.222;16.332;2023-06-14T00:15:36;9.97;;;3.97;;
17842;SDS011;69286;48.222;16.332;2023-06-14T00:18:03;5.13;;;3.87;;
17842;SDS011;69286;48.222;16.332;2023-06-14T00:20:31;6.57;;;3.50;;
17842;SDS011;69286;48.222;16.332;2023-06-14T00:22:59;4.67;;;3.90;;
17842;SDS011;69286;48.222;16.332;2023-06-14T00:25:26;10.77;;;3.87;;
17842;SDS011;69286;48.222;16.332;2023-06-14T00:27:54;4.47;;;3.63;;
17842;SDS011;69286;48.222;16.332;2023-06-14T00:30:24;6.17;;;3.73;;
17842;SDS011;69286;48.222;16.332;2023-06-14T00:32:55;4.60;;;3.47;;
17842;SDS011;69286;48.222;16.332;2023-06-14T00:35:22;5.43;;;3.63;;
17842;SDS011;69286;48.222;16.332;2023-06-14T00:37:50;4.50;;;3.73;;
17842;SDS011;69286;48.222;16.332;2023-06-14T00:40:17;4.77;;;3.57;;
17842;SDS011;69286;48.222;16.332;2023-06-14T00:42:44;4.27;;;3.70;;
17842;SDS011;69286;48.222;16.332;2023-06-14T00:45:11;8.73;;;4.20;;
17842;SDS011;69286;48.222;16.332;2023-06-14T00:47:40;5.80;;;3.80;;
17842;SDS011;69286;48.222;16.332;2023-06-14T00:50:08;7.00;;;3.87;;
17842;SDS011;69286;48.222;16.332;2023-06-14T00:52:36;7.87;;;4.43;;
17842;SDS011;69286;48.222;16.332;2023-06-14T00:55:03;13.40;;;4.00;;
17842;SDS011;69286;48.222;16.332;2023-06-14T00:57:31;5.53;;;4.07;;
17842;SDS011;69286;48.222;16.332;2023-06-14T01:00:03;6.50;;;3.47;;
17842;SDS011;69286;48.222;16.332;2023-06-14T01:02:33;4.80;;;4.03;;
17842;SDS011;69286;48.222;16.332;2023-06-14T01:05:03;6.33;;;3.90;;
17842;SDS011;69286;48.222;16.332;2023-06-14T01:07:33;5.47;;;3.97;;
17842;SDS011;69286;48.222;16.332;2023-06-14T01:10:13;9.47;;;3.77;;
17842;SDS011;69286;48.222;16.332;2023-06-14T01:12:50;6.77;;;3.83;;
17842;SDS011;69286;48.222;16.332;2023-06-14T01:15:24;4.93;;;3.93;;
17842;SDS011;69286;48.222;16.332;2023-06-14T01:17:52;6.50;;;3.93;;
17842;SDS011;69286;48.222;16.332;2023-06-14T01:20:27;6.13;;;4.00;;
17842;SDS011;69286;48.222;16.332;2023-06-14T01:22:57;5.83;;;3.70;;
17842;SDS011;69286;48.222;16.332;2023-06-14T01:25:25;7.23;;;3.70;;
17842;SDS011;69286;48.222;16.332;2023-06-14T01:27:53;5.63;;;4.37;;
17842;SDS011;69286;48.222;16.332;2023-06-14T01:30:24;5.73;;;3.90;;
17842;SDS011;69286;48.222;16.332;2023-06-14T01:32:53;6.87;;;3.93;;
17842;SDS011;69286;48.222;16.332;2023-06-14T01:35:21;8.73;;;4.27;;
17842;SDS011;69286;48.222;16.332;2023-06-14T01:37:49;7.60;;;3.93;;
17842;SDS011;69286;48.222;16.332;2023-06-14T01:40:19;6.43;;;4.50;;
17842;SDS011;69286;48.222;16.332;2023-06-14T01:42:47;7.57;;;4.40;;
17842;SDS011;69286;48.222;16.332;2023-06-14T01:45:16;6.97;;;4.10;;
17842;SDS011;69286;48.222;16.332;2023-06-14T01:47:44;8.90;;;4.50;;
17842;SDS011;69286;48.222;16.332;2023-06-14T01:50:12;8.07;;;4.20;;
17842;SDS011;69286;48.222;16.332;2023-06-14T01:52:39;7.73;;;4.30;;
17842;SDS011;69286;48.222;16.332;2023-06-14T01:55:07;5.30;;;4.00;;
17842;SDS011;69286;48.222;16.332;2023-06-14T01:57:35;6.87;;;4.20;;
17842;SDS011;69286;48.222;16.332;2023-06-14T02:00:03;4.87;;;3.90;;
17842;SDS011;69286;48.222;16.332;2023-06-14T02:02:31;5.57;;;4.07;;
17842;SDS011;69286;48.222;16.332;2023-06-14T02:04:58;10.47;;;3.83;;
17842;SDS011;69286;48.222;16.332;2023-06-14T02:07:25;6.60;;;4.10;;
17842;SDS011;69286;48.222;16.332;2023-06-14T02:09:52;4.97;;;4.17;;
17842;SDS011;69286;48.222;16.332;2023-06-14T02:12:19;8.57;;;3.50;;
17842;SDS011;69286;48.222;16.332;2023-06-14T02:14:47;7.37;;;3.63;;
17842;SDS011;69286;48.222;16.332;2023-06-14T02:17:15;5.60;;;4.17;;
17842;SDS011;69286;48.222;16.332;2023-06-14T02:19:42;5.53;;;3.50;;
17842;SDS011;69286;48.222;16.332;2023-06-14T02:22:09;4.23;;;3.60;;
17842;SDS011;69286;48.222;16.332;2023-06-14T02:24:36;4.83;;;3.63;;
17842;SDS011;69286;48.222;16.332;2023-06-14T02:27:06;4.30;;;3.77;;
17842;SDS011;69286;48.222;16.332;2023-06-14T02:29:35;6.23;;;3.93;;
17842;SDS011;69286;48.222;16.332;2023-06-14T02:32:04;8.53;;;3.97;;
17842;SDS011;69286;48.222;16.332;2023-06-14T02:34:32;6.40;;;4.20;;
17842;SDS011;69286;48.222;16.332;2023-06-14T02:36:59;4.87;;;3.80;;
17842;SDS011;69286;48.222;16.332;2023-06-14T02:39:27;9.83;;;4.10;;
17842;SDS011;69286;48.222;16.332;2023-06-14T02:41:54;4.70;;;3.83;;
17842;SDS011;69286;48.222;16.332;2023-06-14T02:44:24;4.73;;;3.63;;
17842;SDS011;69286;48.222;16.332;2023-06-14T02:46:52;6.37;;;3.80;;
17842;SDS011;69286;48.222;16.332;2023-06-14T02:49:20;4.93;;;3.67;;
17842;SDS011;69286;48.222;16.332;2023-06-14T02:51:48;8.63;;;3.80;;
17842;SDS011;69286;48.222;16.332;2023-06-14T02:54:15;8.43;;;4.27;;
17842;SDS011;69286;48.222;16.332;2023-06-14T02:56:42;5.40;;;4.00;;
17842;SDS011;69286;48.222;16.332;2023-06-14T02:59:09;5.43;;;3.83;;
17842;SDS011;69286;48.222;16.332;2023-06-14T03:01:36;6.90;;;4.00;;
17842;SDS011;69286;48.222;16.332;2023-06-14T03:04:06;8.93;;;4.23;;
17842;SDS011;69286;48.222;16.332;2023-06-14T03:06:35;4.77;;;4.00;;
17842;SDS011;69286;48.222;16.332;2023-06-14T03:09:02;4.73;;;4.07;;
17842;SDS011;69286;48.222;16.332;2023-06-14T03:11:30;7.43;;;4.27;;
17842;SDS011;69286;48.222;16.332;2023-06-14T03:13:58;4.10;;;3.50;;
17842;SDS011;69286;48.222;16.332;2023-06-14T03:16:28;8.13;;;4.10;;
17842;SDS011;69286;48.222;16.332;2023-06-14T03:18:56;6.20;;;3.93;;
17842;SDS011;69286;48.222;16.332;2023-06-14T03:21:23;6.53;;;3.97;;
17842;SDS011;69286;48.222;16.332;2023-06-14T03:23:52;5.37;;;3.73;;
17842;SDS011;69286;48.222;16.332;2023-06-14T03:26:19;9.00;;;4.70;;
17842;SDS011;69286;48.222;16.332;2023-06-14T03:28:47;6.83;;;4.13;;
17842;SDS011;69286;48.222;16.332;2023-06-14T03:31:15;7.93;;;3.83;;
17842;SDS011;69286;48.222;16.332;2023-06-14T03:33:42;8.17;;;4.00;;
17842;SDS011;69286;48.222;16.332;2023-06-14T03:36:09;6.03;;;4.17;;
17842;SDS011;69286;48.222;16.332;2023-06-14T03:38:36;5.50;;;3.80;;
17842;SDS011;69286;48.222;16.332;2023-06-14T03:41:05;6.90;;;4.37;;
17842;SDS011;69286;48.222;16.332;2023-06-14T03:43:32;6.47;;;4.27;;
17842;SDS011;69286;48.222;16.332;2023-06-14T03:45:59;10.20;;;3.83;;
17842;SDS011;69286;48.222;16.332;2023-06-14T03:48:26;7.03;;;4.27;;
17842;SDS011;69286;48.222;16.332;2023-06-14T03:50:53;5.20;;;4.07;;
17842;SDS011;69286;48.222;16.332;2023-06-14T03:53:21;15.83;;;4.40;;
17842;SDS011;69286;48.222;16.332;2023-06-14T03:55:48;5.33;;;4.30;;
17842;SDS011;69286;48.222;16.332;2023-06-14T03:58:18;4.97;;;4.27;;
17842;SDS011;69286;48.222;16.332;2023-06-14T04:00:45;5.23;;;4.00;;
17842;SDS011;69286;48.222;16.332;2023-06-14T04:03:13;8.83;;;4.10;;
17842;SDS011;69286;48.222;16.332;2023-06-14T04:05:40;7.17;;;4.17;;
17842;SDS011;69286;48.222;16.332;2023-06-14T04:08:08;9.53;;;4.53;;
17842;SDS011;69286;48.222;16.332;2023-06-14T04:10:35;10.67;;;5.07;;
17842;SDS011;69286;48.222;16.332;2023-06-14T04:13:03;7.23;;;4.43;;
17842;SDS011;69286;48.222;16.332;2023-06-14T04:15:33;7.47;;;4.70;;
17842;SDS011;69286;48.222;16.332;2023-06-14T04:18:00;6.43;;;3.90;;
17842;SDS011;69286;48.222;16.332;2023-06-14T04:20:27;7.40;;;4.40;;
17842;SDS011;69286;48.222;16.332;2023-06-14T04:22:56;7.80;;;4.47;;
17842;SDS011;69286;48.222;16.332;2023-06-14T04:25:23;5.53;;;4.13;;
17842;SDS011;69286;48.222;16.332;2023-06-14T04:27:53;4.30;;;3.90;;
17842;SDS011;69286;48.222;16.332;2023-06-14T04:30:20;6.47;;;4.50;;
17842;SDS011;69286;48.222;16.332;2023-06-14T04:32:53;5.33;;;4.10;;
17842;SDS011;69286;48.222;16.332;2023-06-14T04:35:23;4.50;;;3.60;;
17842;SDS011;69286;48.222;16.332;2023-06-14T04:37:50;8.77;;;3.53;;
17842;SDS011;69286;48.222;16.332;2023-06-14T04:40:18;8.77;;;4.10;;
17842;SDS011;69286;48.222;16.332;2023-06-14T04:42:45;7.67;;;3.77;;
17842;SDS011;69286;48.222;16.332;2023-06-14T04:45:14;5.07;;;3.97;;
17842;SDS011;69286;48.222;16.332;2023-06-14T04:47:41;4.90;;;3.40;;
17842;SDS011;69286;48.222;16.332;2023-06-14T04:50:10;8.77;;;4.40;;
17842;SDS011;69286;48.222;16.332;2023-06-14T04:52:38;6.07;;;3.63;;
17842;SDS011;69286;48.222;16.332;2023-06-14T04:55:05;9.07;;;4.27;;
17842;SDS011;69286;48.222;16.332;2023-06-14T04:57:33;7.87;;;4.17;;
17842;SDS011;69286;48.222;16.332;2023-06-14T05:00:00;8.53;;;4.10;;
17842;SDS011;69286;48.222;16.332;2023-06-14T05:02:30;9.00;;;4.03;;
17842;SDS011;69286;48.222;16.332;2023-06-14T05:04:58;8.00;;;4.30;;
17842;SDS011;69286;48.222;16.332;2023-06-14T05:07:28;4.20;;;3.80;;
17842;SDS011;69286;48.222;16.332;2023-06-14T05:09:55;8.27;;;3.80;;
17842;SDS011;69286;48.222;16.332;2023-06-14T05:12:22;5.17;;;3.70;;
17842;SDS011;69286;48.222;16.332;2023-06-14T05:14:49;7.60;;;3.67;;
17842;SDS011;69286;48.222;16.332;2023-06-14T05:17:16;4.37;;;3.43;;
17842;SDS011;69286;48.222;16.332;2023-06-14T05:19:44;6.67;;;4.50;;
17842;SDS011;69286;48.222;16.332;2023-06-14T05:22:11;8.20;;;4.07;;
17842;SDS011;69286;48.222;16.332;2023-06-14T05:24:39;4.10;;;3.50;;
17842;SDS011;69286;48.222;16.332;2023-06-14T05:27:06;4.87;;;3.30;;
17842;SDS011;69286;48.222;16.332;2023-06-14T05:29:34;8.20;;;3.50;;
17842;SDS011;69286;48.222;16.332;2023-06-14T05:32:01;6.90;;;3.30;;
17842;SDS011;69286;48.222;16.332;2023-06-14T05:34:28;5.73;;;3.07;;
17842;SDS011;69286;48.222;16.332;2023-06-14T05:36:55;15.33;;;3.73;;
17842;SDS011;69286;48.222;16.332;2023-06-14T05:39:22;7.87;;;3.63;;
17842;SDS011;69286;48.222;16.332;2023-06-14T05:41:51;5.10;;;3.13;;
17842;SDS011;69286;48.222;16.332;2023-06-14T05:44:18;5.47;;;3.63;;
17842;SDS011;69286;48.222;16.332;2023-06-14T05:46:45;7.03;;;3.30;;
17842;SDS011;69286;48.222;16.332;2023-06-14T05:49:12;3.90;;;3.20;;
17842;SDS011;69286;48.222;16.332;2023-06-14T05:51:39;7.17;;;3.43;;
17842;SDS011;69286;48.222;16.332;2023-06-14T05:54:06;4.57;;;3.27;;
17842;SDS011;69286;48.222;16.332;2023-06-14T05:56:33;3.37;;;2.83;;
17842;SDS011;69286;48.222;16.332;2023-06-14T05:59:01;4.23;;;3.50;;
17842;SDS011;69286;48.222;16.332;2023-06-14T06:01:28;4.30;;;3.20;;
17842;SDS011;69286;48.222;16.332;2023-06-14T06:03:58;4.33;;;3.20;;
17842;SDS011;69286;48.222;16.332;2023-06-14T06:06:25;4.90;;;3.30;;
17842;SDS011;69286;48.222;16.332;2023-06-14T06:08:52;7.67;;;3.77;;
17842;SDS011;69286;48.222;16.332;2023-06-14T06:11:19;6.10;;;3.30;;
17842;SDS011;69286;48.222;16.332;2023-06-14T06:13:46;4.47;;;3.53;;
17842;SDS011;69286;48.222;16.332;2023-06-14T06:16:14;8.77;;;3.43;;
17842;SDS011;69286;48.222;16.332;2023-06-14T06:18:41;7.77;;;3.67;;
17842;SDS011;69286;48.222;16.332;2023-06-14T06:21:08;4.77;;;3.37;;
17842;SDS011;69286;48.222;16.332;2023-06-14T06:23:36;6.70;;;3.67;;
17842;SDS011;69286;48.222;16.332;2023-06-14T06:26:04;4.80;;;3.30;;
17842;SDS011;69286;48.222;16.332;2023-06-14T06:28:32;4.03;;;3.13;;
17842;SDS011;69286;48.222;16.332;2023-06-14T06:30:59;12.17;;;3.50;;
17842;SDS011;69286;48.222;16.332;2023-06-14T06:33:28;6.40;;;3.73;;
17842;SDS011;69286;48.222;16.332;2023-06-14T06:35:55;8.97;;;3.47;;
17842;SDS011;69286;48.222;16.332;2023-06-14T06:38:22;6.43;;;3.20;;
17842;SDS011;69286;48.222;16.332;2023-06-14T06:40:49;4.07;;;3.20;;
17842;SDS011;69286;48.222;16.332;2023-06-14T06:43:16;4.83;;;3.10;;
17842;SDS011;69286;48.222;16.332;2023-06-14T06:45:43;4.53;;;3.07;;
17842;SDS011;69286;48.222;16.332;2023-06-14T06:48:10;2.90;;;2.70;;
17842;SDS011;69286;48.222;16.332;2023-06-14T06:50:39;4.30;;;3.10;;
17842;SDS011;69286;48.222;16.332;2023-06-14T06:53:06;3.77;;;2.70;;
17842;SDS011;69286;48.222;16.332;2023-06-14T06:55:33;3.50;;;2.80;;
17842;SDS011;69286;48.222;16.332;2023-06-14T06:58:00;3.57;;;3.10;;
17842;SDS011;69286;48.222;16.332;2023-06-14T07:00:29;4.00;;;2.63;;
17842;SDS011;69286;48.222;16.332;2023-06-14T07:02:56;6.40;;;3.05;;
17842;SDS011;69286;48.222;16.332;2023-06-14T07:05:24;2.65;;;2.45;;
17842;SDS011;69286;48.222;16.332;2023-06-14T07:07:52;7.07;;;2.90;;
17842;SDS011;69286;48.222;16.332;2023-06-14T07:10:19;5.25;;;2.80;;
17842;SDS011;69286;48.222;16.332;2023-06-14T07:12:46;4.88;;;3.00;;
17842;SDS011;69286;48.222;16.332;2023-06-14T07:15:14;3.15;;;2.40;;
17842;SDS011;69286;48.222;16.332;2023-06-14T07:17:41;3.47;;;2.78;;
17842;SDS011;69286;48.222;16.332;2023-06-14T07:20:08;6.15;;;2.63;;
17842;SDS011;69286;48.222;16.332;2023-06-14T07:22:38;6.13;;;3.15;;
17842;SDS011;69286;48.222;16.332;2023-06-14T07:25:08;4.03;;;2.80;;
17842;SDS011;69286;48.222;16.332;2023-06-14T07:27:38;3.70;;;2.72;;
17842;SDS011;69286;48.222;16.332;2023-06-14T07:30:06;4.75;;;3.10;;
17842;SDS011;69286;48.222;16.332;2023-06-14T07:32:34;4.20;;;2.90;;
17842;SDS011;69286;48.222;16.332;2023-06-14T07:35:02;5.28;;;2.95;;
17842;SDS011;69286;48.222;16.332;2023-06-14T07:37:29;5.88;;;3.30;;
17842;SDS011;69286;48.222;16.332;2023-06-14T07:39:56;8.40;;;3.33;;
17842;SDS011;69286;48.222;16.332;2023-06-14T07:42:25;4.60;;;2.92;;
17842;SDS011;69286;48.222;16.332;2023-06-14T07:44:52;5.00;;;2.90;;
17842;SDS011;69286;48.222;16.332;2023-06-14T07:47:19;8.50;;;2.53;;
17842;SDS011;69286;48.222;16.332;2023-06-14T07:49:46;3.10;;;2.40;;
17842;SDS011;69286;48.222;16.332;2023-06-14T07:52:13;5.53;;;2.70;;
17842;SDS011;69286;48.222;16.332;2023-06-14T07:54:41;3.72;;;2.90;;
17842;SDS011;69286;48.222;16.332;2023-06-14T07:57:08;3.72;;;2.53;;
17842;SDS011;69286;48.222;16.332;2023-06-14T07:59:36;5.10;;;2.95;;
17842;SDS011;69286;48.222;16.332;2023-06-14T08:02:03;3.00;;;2.70;;
17842;SDS011;69286;48.222;16.332;2023-06-14T08:04:31;5.53;;;3.20;;
17842;SDS011;69286;48.222;16.332;2023-06-14T08:06:58;2.70;;;2.50;;
17842;SDS011;69286;48.222;16.332;2023-06-14T08:09:26;5.70;;;2.53;;
17842;SDS011;69286;48.222;16.332;2023-06-14T08:11:54;3.97;;;3.05;;
17842;SDS011;69286;48.222;16.332;2023-06-14T08:14:21;5.88;;;2.67;;
17842;SDS011;69286;48.222;16.332;2023-06-14T08:16:50;3.00;;;2.63;;
17842;SDS011;69286;48.222;16.332;2023-06-14T08:19:17;5.07;;;3.08;;
17842;SDS011;69286;48.222;16.332;2023-06-14T08:21:45;3.47;;;2.58;;
17842;SDS011;69286;48.222;16.332;2023-06-14T08:24:12;3.60;;;2.50;;
17842;SDS011;69286;48.222;16.332;2023-06-14T08:26:39;3.78;;;2.40;;
17842;SDS011;69286;48.222;16.332;2023-06-14T08:29:07;3.53;;;2.60;;
17842;SDS011;69286;48.222;16.332;2023-06-14T08:31:34;5.63;;;3.08;;
17842;SDS011;69286;48.222;16.332;2023-06-14T08:34:02;7.72;;;3.20;;
17842;SDS011;69286;48.222;16.332;2023-06-14T08:36:29;7.90;;;3.00;;
17842;SDS011;69286;48.222;16.332;2023-06-14T08:38:56;3.78;;;2.75;;
17842;SDS011;69286;48.222;16.332;2023-06-14T08:41:23;4.15;;;2.90;;
17842;SDS011;69286;48.222;16.332;2023-06-14T08:43:50;7.80;;;2.83;;
17842;SDS011;69286;48.222;16.332;2023-06-14T08:46:17;5.65;;;2.75;;
17842;SDS011;69286;48.222;16.332;2023-06-14T08:48:46;3.63;;;2.70;;
17842;SDS011;69286;48.222;16.332;2023-06-14T08:51:16;4.93;;;2.42;;
17842;SDS011;69286;48.222;16.332;2023-06-14T08:53:47;2.90;;;2.67;;
17842;SDS011;69286;48.222;16.332;2023-06-14T08:56:22;4.93;;;2.28;;
17842;SDS011;69286;48.222;16.332;2023-06-14T08:58:51;5.45;;;2.60;;
17842;SDS011;69286;48.222;16.332;2023-06-14T09:01:18;6.18;;;3.05;;
17842;SDS011;69286;48.222;16.332;2023-06-14T09:03:47;4.75;;;2.85;;
17842;SDS011;69286;48.222;16.332;2023-06-14T09:06:16;5.25;;;2.45;;
17842;SDS011;69286;48.222;16.332;2023-06-14T09:08:44;3.50;;;2.78;;
17842;SDS011;69286;48.222;16.332;2023-06-14T09:11:12;5.97;;;3.05;;
17842;SDS011;69286;48.222;16.332;2023-06-14T09:13:41;3.92;;;2.50;;
17842;SDS011;69286;48.222;16.332;2023-06-14T09:16:08;5.55;;;2.83;;
17842;SDS011;69286;48.222;16.332;2023-06-14T09:18:36;3.28;;;2.47;;
17842;SDS011;69286;48.222;16.332;2023-06-14T09:21:05;3.67;;;2.88;;
17842;SDS011;69286;48.222;16.332;2023-06-14T09:23:34;5.70;;;3.13;;
17842;SDS011;69286;48.222;16.332;2023-06-14T09:26:06;3.60;;;2.90;;
17842;SDS011;69286;48.222;16.332;2023-06-14T09:28:34;8.95;;;3.10;;
17842;SDS011;69286;48.222;16.332;2023-06-14T09:31:01;4.93;;;2.88;;
17842;SDS011;69286;48.222;16.332;2023-06-14T09:33:28;5.95;;;2.85;;
17842;SDS011;69286;48.222;16.332;2023-06-14T09:35:56;6.35;;;2.92;;
17842;SDS011;69286;48.222;16.332;2023-06-14T09:38:24;4.47;;;2.75;;
17842;SDS011;69286;48.222;16.332;2023-06-14T09:40:53;4.30;;;2.80;;
17842;SDS011;69286;48.222;16.332;2023-06-14T09:43:23;4.72;;;2.97;;
17842;SDS011;69286;48.222;16.332;2023-06-14T09:45:52;5.20;;;2.63;;
17842;SDS011;69286;48.222;16.332;2023-06-14T09:48:20;6.97;;;3.20;;
17842;SDS011;69286;48.222;16.332;2023-06-14T09:50:47;12.52;;;3.63;;
17842;SDS011;69286;48.222;16.332;2023-06-14T09:53:16;3.10;;;2.80;;
17842;SDS011;69286;48.222;16.332;2023-06-14T09:55:47;6.60;;;3.55;;
17842;SDS011;69286;48.222;16.332;2023-06-14T09:58:17;7.68;;;3.20;;
17842;SDS011;69286;48.222;16.332;2023-06-14T10:00:49;3.85;;;3.00;;
17842;SDS011;69286;48.222;16.332;2023-06-14T10:03:20;8.38;;;3.15;;
17842;SDS011;69286;48.222;16.332;2023-06-14T10:05:51;12.85;;;3.15;;
17842;SDS011;69286;48.222;16.332;2023-06-14T10:08:22;8.45;;;3.08;;
17842;SDS011;69286;48.222;16.332;2023-06-14T10:10:52;6.85;;;2.60;;
17842;SDS011;69286;48.222;16.332;2023-06-14T10:13:23;4.00;;;2.75;;
17842;SDS011;69286;48.222;16.332;2023-06-14T10:15:55;2.72;;;2.50;;
17842;SDS011;69286;48.222;16.332;2023-06-14T10:18:32;11.25;;;3.03;;
17842;SDS011;69286;48.222;16.332;2023-06-14T10:21:08;7.00;;;3.00;;
17842;SDS011;69286;48.222;16.332;2023-06-14T10:23:48;5.23;;;2.37;;
17842;SDS011;69286;48.222;16.332;2023-06-14T10:26:19;4.53;;;2.93;;
17842;SDS011;69286;48.222;16.332;2023-06-14T10:28:59;6.37;;;2.87;;
17842;SDS011;69286;48.222;16.332;2023-06-14T10:34:12;4.47;;;2.47;;
17842;SDS011;69286;48.222;16.332;2023-06-14T10:36:59;6.10;;;2.80;;
17842;SDS011;69286;48.222;16.332;2023-06-14T10:39:30;4.33;;;2.87;;
17842;SDS011;69286;48.222;16.332;2023-06-14T10:41:58;3.23;;;2.50;;
17842;SDS011;69286;48.222;16.332;2023-06-14T10:44:47;5.53;;;2.63;;
17842;SDS011;69286;48.222;16.332;2023-06-14T10:50:02;5.07;;;2.50;;
17842;SDS011;69286;48.222;16.332;2023-06-14T10:52:33;7.33;;;2.77;;
17842;SDS011;69286;48.222;16.332;2023-06-14T10:55:01;3.50;;;2.50;;
17842;SDS011;69286;48.222;16.332;2023-06-14T10:57:31;5.10;;;2.70;;
17842;SDS011;69286;48.222;16.332;2023-06-14T11:00:00;3.17;;;2.53;;
17842;SDS011;69286;48.222;16.332;2023-06-14T11:02:46;5.07;;;2.87;;
17842;SDS011;69286;48.222;16.332;2023-06-14T11:05:45;4.00;;;2.70;;
17842;SDS011;69286;48.222;16.332;2023-06-14T11:11:19;3.07;;;2.73;;
17842;SDS011;69286;48.222;16.332;2023-06-14T11:13:48;4.37;;;2.60;;
17842;SDS011;69286;48.222;16.332;2023-06-14T11:16:18;5.27;;;2.97;;
17842;SDS011;69286;48.222;16.332;2023-06-14T11:18:45;7.37;;;2.90;;
17842;SDS011;69286;48.222;16.332;2023-06-14T11:21:15;4.27;;;2.70;;
17842;SDS011;69286;48.222;16.332;2023-06-14T11:23:48;4.37;;;2.60;;
17842;SDS011;69286;48.222;16.332;2023-06-14T11:26:16;5.47;;;2.60;;
17842;SDS011;69286;48.222;16.332;2023-06-14T11:28:54;4.83;;;2.80;;
17842;SDS011;69286;48.222;16.332;2023-06-14T11:31:24;17.57;;;3.17;;
17842;SDS011;69286;48.222;16.332;2023-06-14T11:33:53;6.90;;;2.83;;
17842;SDS011;69286;48.222;16.332;2023-06-14T11:36:21;5.80;;;2.90;;
17842;SDS011;69286;48.222;16.332;2023-06-14T11:38:48;6.50;;;2.80;;
17842;SDS011;69286;48.222;16.332;2023-06-14T11:41:15;5.83;;;2.90;;
17842;SDS011;69286;48.222;16.332;2023-06-14T11:43:46;26.47;;;3.57;;
17842;SDS011;69286;48.222;16.332;2023-06-14T11:46:13;3.90;;;2.83;;
17842;SDS011;69286;48.222;16.332;2023-06-14T11:48:44;5.40;;;2.97;;
17842;SDS011;69286;48.222;16.332;2023-06-14T11:51:11;2.60;;;2.40;;
17842;SDS011;69286;48.222;16.332;2023-06-14T11:53:38;4.50;;;2.60;;
17842;SDS011;69286;48.222;16.332;2023-06-14T11:56:05;4.10;;;3.10;;
17842;SDS011;69286;48.222;16.332;2023-06-14T11:58:33;4.57;;;3.03;;
17842;SDS011;69286;48.222;16.332;2023-06-14T12:01:00;4.17;;;2.73;;
17842;SDS011;69286;48.222;16.332;2023-06-14T12:03:29;7.47;;;3.10;;
17842;SDS011;69286;48.222;16.332;2023-06-14T12:06:05;5.87;;;2.50;;
17842;SDS011;69286;48.222;16.332;2023-06-14T12:08:34;3.20;;;2.63;;
17842;SDS011;69286;48.222;16.332;2023-06-14T12:11:04;3.40;;;2.33;;
17842;SDS011;69286;48.222;16.332;2023-06-14T12:13:33;3.80;;;2.33;;
17842;SDS011;69286;48.222;16.332;2023-06-14T12:16:01;6.63;;;2.90;;
17842;SDS011;69286;48.222;16.332;2023-06-14T12:18:32;5.20;;;2.57;;
17842;SDS011;69286;48.222;16.332;2023-06-14T12:21:00;4.77;;;2.90;;
17842;SDS011;69286;48.222;16.332;2023-06-14T12:23:41;5.17;;;2.93;;
17842;SDS011;69286;48.222;16.332;2023-06-14T12:26:11;3.40;;;2.60;;
17842;SDS011;69286;48.222;16.332;2023-06-14T12:28:39;6.40;;;2.40;;
17842;SDS011;69286;48.222;16.332;2023-06-14T12:31:07;3.67;;;2.40;;
17842;SDS011;69286;48.222;16.332;2023-06-14T12:33:34;3.27;;;2.57;;
17842;SDS011;69286;48.222;16.332;2023-06-14T12:36:02;6.50;;;3.73;;
17842;SDS011;69286;48.222;16.332;2023-06-14T12:38:30;4.70;;;2.93;;
17842;SDS011;69286;48.222;16.332;2023-06-14T12:40:59;8.10;;;3.17;;
17842;SDS011;69286;48.222;16.332;2023-06-14T12:43:26;4.90;;;2.57;;
17842;SDS011;69286;48.222;16.332;2023-06-14T12:45:53;10.60;;;3.10;;
17842;SDS011;69286;48.222;16.332;2023-06-14T12:48:21;4.83;;;2.90;;
17842;SDS011;69286;48.222;16.332;2023-06-14T12:50:48;6.00;;;3.13;;
17842;SDS011;69286;48.222;16.332;2023-06-14T12:53:15;4.83;;;2.77;;
17842;SDS011;69286;48.222;16.332;2023-06-14T12:55:43;6.87;;;3.30;;
17842;SDS011;69286;48.222;16.332;2023-06-14T12:58:11;4.90;;;2.70;;
17842;SDS011;69286;48.222;16.332;2023-06-14T13:00:39;8.63;;;2.97;;
17842;SDS011;69286;48.222;16.332;2023-06-14T13:03:06;3.50;;;3.07;;
17842;SDS011;69286;48.222;16.332;2023-06-14T13:05:33;6.73;;;3.40;;
17842;SDS011;69286;48.222;16.332;2023-06-14T13:08:00;4.73;;;2.97;;
17842;SDS011;69286;48.222;16.332;2023-06-14T13:10:28;3.53;;;2.70;;
17842;SDS011;69286;48.222;16.332;2023-06-14T13:12:55;9.70;;;2.87;;
17842;SDS011;69286;48.222;16.332;2023-06-14T13:15:27;5.80;;;2.57;;
17842;SDS011;69286;48.222;16.332;2023-06-14T13:17:55;5.60;;;2.90;;
17842;SDS011;69286;48.222;16.332;2023-06-14T13:20:22;4.70;;;2.70;;
17842;SDS011;69286;48.222;16.332;2023-06-14T13:22:49;3.87;;;3.10;;
17842;SDS011;69286;48.222;16.332;2023-06-14T13:25:18;5.17;;;2.57;;
17842;SDS011;69286;48.222;16.332;2023-06-14T13:27:46;3.83;;;2.97;;
17842;SDS011;69286;48.222;16.332;2023-06-14T13:30:13;2.90;;;2.60;;
17842;SDS011;69286;48.222;16.332;2023-06-14T13:32:42;3.73;;;3.00;;
17842;SDS011;69286;48.222;16.332;2023-06-14T13:35:09;4.10;;;2.63;;
17842;SDS011;69286;48.222;16.332;2023-06-14T13:37:36;4.83;;;3.50;;
17842;SDS011;69286;48.222;16.332;2023-06-14T13:40:03;4.23;;;2.70;;
17842;SDS011;69286;48.222;16.332;2023-06-14T13:42:31;7.03;;;2.93;;
17842;SDS011;69286;48.222;16.332;2023-06-14T13:44:58;6.57;;;2.70;;
17842;SDS011;69286;48.222;16.332;2023-06-14T13:47:25;3.17;;;2.50;;
17842;SDS011;69286;48.222;16.332;2023-06-14T13:49:54;8.57;;;2.93;;
17842;SDS011;69286;48.222;16.332;2023-06-14T13:52:21;5.57;;;2.90;;
17842;SDS011;69286;48.222;16.332;2023-06-14T13:54:48;8.33;;;2.77;;
17842;SDS011;69286;48.222;16.332;2023-06-14T13:57:16;7.53;;;3.10;;
17842;SDS011;69286;48.222;16.332;2023-06-14T13:59:44;5.87;;;3.20;;
17842;SDS011;69286;48.222;16.332;2023-06-14T14:02:11;2.70;;;2.50;;
17842;SDS011;69286;48.222;16.332;2023-06-14T14:04:39;11.03;;;3.20;;
17842;SDS011;69286;48.222;16.332;2023-06-14T14:07:08;7.07;;;3.17;;
17842;SDS011;69286;48.222;16.332;2023-06-14T14:09:35;9.63;;;3.40;;
17842;SDS011;69286;48.222;16.332;2023-06-14T14:12:04;5.73;;;3.37;;
17842;SDS011;69286;48.222;16.332;2023-06-14T14:14:32;12.53;;;3.20;;
17842;SDS011;69286;48.222;16.332;2023-06-14T14:16:59;6.83;;;3.23;;
17842;SDS011;69286;48.222;16.332;2023-06-14T14:19:26;4.70;;;3.20;;
17842;SDS011;69286;48.222;16.332;2023-06-14T14:21:53;7.73;;;3.13;;
17842;SDS011;69286;48.222;16.332;2023-06-14T14:24:22;4.40;;;2.90;;
17842;SDS011;69286;48.222;16.332;2023-06-14T14:26:49;10.33;;;3.53;;
17842;SDS011;69286;48.222;16.332;2023-06-14T14:29:18;7.40;;;2.70;;
17842;SDS011;69286;48.222;16.332;2023-06-14T14:31:45;6.87;;;3.43;;
17842;SDS011;69286;48.222;16.332;2023-06-14T14:34:12;2.60;;;2.40;;
17842;SDS011;69286;48.222;16.332;2023-06-14T14:36:39;5.37;;;2.70;;
17842;SDS011;69286;48.222;16.332;2023-06-14T14:39:07;6.63;;;2.73;;
17842;SDS011;69286;48.222;16.332;2023-06-14T14:41:36;8.03;;;3.30;;
17842;SDS011;69286;48.222;16.332;2023-06-14T14:44:05;6.43;;;2.93;;
17842;SDS011;69286;48.222;16.332;2023-06-14T14:46:32;5.93;;;3.07;;
17842;SDS011;69286;48.222;16.332;2023-06-14T14:48:59;5.50;;;2.70;;